createdAt,value
2023-04-07T00:00:46.958Z,93.15
2023-04-07T00:03:14.695Z,93.53
2023-04-07T00:05:42.405Z,94.13
2023-04-07T00:08:09.978Z,94.09
2023-04-07T00:10:37.604Z,94.57
2023-04-07T00:13:06.486Z,93.87
2023-04-07T00:15:34.208Z,93.62
2023-04-07T00:18:01.872Z,94.27
2023-04-07T00:20:29.578Z,94.90
2023-04-07T00:22:57.136Z,95.38
2023-04-07T00:25:24.738Z,95.54
2023-04-07T00:27:52.305Z,95.66
2023-04-07T00:30:21.675Z,95.87
2023-04-07T00:32:49.309Z,96.02
2023-04-07T00:35:16.924Z,96.32
2023-04-07T00:37:44.612Z,96.56
2023-04-07T00:40:12.868Z,96.71
2023-04-07T00:42:41.637Z,96.05
2023-04-07T00:45:11.427Z,96.02
2023-04-07T00:47:40.596Z,95.93
2023-04-07T00:50:09.330Z,96.10
2023-04-07T00:52:37.281Z,95.97
2023-04-07T00:55:05.159Z,95.58
2023-04-07T00:57:32.760Z,95.37
2023-04-07T01:00:00.436Z,95.95
2023-04-07T01:02:34.924Z,95.64
2023-04-07T01:05:14.081Z,95.68
2023-04-07T01:07:53.673Z,95.89
2023-04-07T01:10:28.856Z,95.55
2023-04-07T01:13:07.565Z,95.33
2023-04-07T01:15:36.160Z,95.91
2023-04-07T01:18:11.610Z,95.87
2023-04-07T01:20:41.400Z,96.17
2023-04-07T01:23:09.733Z,96.31
2023-04-07T01:26:00.884Z,95.62
2023-04-07T01:28:57.268Z,95.24
2023-04-07T01:31:27.584Z,94.67
2023-04-07T01:38:08.190Z,94.19
2023-04-07T01:40:37.414Z,94.19
2023-04-07T01:43:05.756Z,94.34
2023-04-07T01:45:36.661Z,94.64
2023-04-07T01:48:07.357Z,94.98
2023-04-07T01:50:35.652Z,94.95
2023-04-07T01:53:04.770Z,95.05
2023-04-07T01:55:33.189Z,95.16
2023-04-07T01:58:06.259Z,95.50
2023-04-07T02:00:35.238Z,95.58
2023-04-07T02:03:20.870Z,95.19
2023-04-07T02:05:51.111Z,95.71
2023-04-07T02:08:22.738Z,95.38
2023-04-07T02:10:52.629Z,95.56
2023-04-07T02:13:21.776Z,95.46
2023-04-07T02:15:51.485Z,95.46
2023-04-07T02:18:21.633Z,95.66
2023-04-07T02:20:51.626Z,96.04
2023-04-07T02:23:19.241Z,96.08
2023-04-07T02:25:46.882Z,95.71
2023-04-07T02:28:14.500Z,95.53
2023-04-07T02:30:42.063Z,95.64
2023-04-07T02:33:09.687Z,95.64
2023-04-07T02:35:38.633Z,95.47
2023-04-07T02:42:18.644Z,96.08
2023-04-07T02:44:46.288Z,96.14
2023-04-07T02:47:13.824Z,95.94
2023-04-07T02:49:41.493Z,96.08
2023-04-07T02:52:10.502Z,95.59
2023-04-07T02:54:38.135Z,95.66
2023-04-07T02:57:05.922Z,95.89
2023-04-07T03:08:48.484Z,95.55
2023-04-07T03:11:17.443Z,96.08
2023-04-07T03:13:46.070Z,96.14
2023-04-07T03:16:15.884Z,96.59
2023-04-07T03:18:56.631Z,96.70
2023-04-07T03:21:24.729Z,96.29
2023-04-07T03:23:52.517Z,96.55
2023-04-07T03:26:22.374Z,96.71
2023-04-07T03:28:51.070Z,96.75
2023-04-07T03:31:20.040Z,96.63
2023-04-07T03:33:50.547Z,96.44
2023-04-07T03:36:19.263Z,96.95
2023-04-07T03:38:48.667Z,97.18
2023-04-07T03:41:18.348Z,97.23
2023-04-07T03:43:47.324Z,97.73
2023-04-07T03:46:15.824Z,97.42
2023-04-07T03:48:44.100Z,97.39
2023-04-07T03:51:12.106Z,97.01
2023-04-07T03:53:41.263Z,97.50
2023-04-07T03:56:24.704Z,97.42
2023-04-07T03:58:53.654Z,98.01
2023-04-07T04:01:27.920Z,98.55
2023-04-07T04:03:58.397Z,97.83
2023-04-07T04:06:31.322Z,98.55
2023-04-07T04:09:07.207Z,98.52
2023-04-07T04:11:38.263Z,97.52
2023-04-07T04:14:07.907Z,96.72
2023-04-07T04:16:37.323Z,96.81
2023-04-07T04:19:11.406Z,97.08
2023-04-07T04:21:39.006Z,97.51
2023-04-07T04:24:06.914Z,97.88
2023-04-07T04:26:34.564Z,97.08
2023-04-07T04:29:10.596Z,96.97
2023-04-07T04:31:39.612Z,97.53
2023-04-07T04:34:08.170Z,97.96
2023-04-07T04:36:38.322Z,98.15
2023-04-07T04:39:06.961Z,98.90
2023-04-07T04:41:36.197Z,99.00
2023-04-07T04:44:04.258Z,97.92
2023-04-07T04:46:34.489Z,97.49
2023-04-07T04:49:02.177Z,97.23
2023-04-07T04:51:31.148Z,97.63
2023-04-07T04:54:06.263Z,98.19
2023-04-07T04:56:35.707Z,98.17
2023-04-07T04:59:05.814Z,98.19
2023-04-07T05:01:46.783Z,97.71
2023-04-07T05:04:17.988Z,98.27
2023-04-07T05:06:52.078Z,97.87
2023-04-07T05:09:22.809Z,97.36
2023-04-07T05:11:51.497Z,97.67
2023-04-07T05:14:19.333Z,97.58
2023-04-07T05:16:55.202Z,97.65
2023-04-07T05:19:29.527Z,97.71
2023-04-07T05:22:02.302Z,98.04
2023-04-07T05:24:33.028Z,98.57
2023-04-07T05:27:02.215Z,97.92
2023-04-07T05:29:31.582Z,97.79
2023-04-07T05:32:01.445Z,97.88
2023-04-07T05:34:31.310Z,97.68
2023-04-07T05:36:58.986Z,97.65
2023-04-07T05:39:27.105Z,98.31
2023-04-07T05:41:57.277Z,97.59
2023-04-07T05:44:27.279Z,97.21
2023-04-07T05:46:55.925Z,97.65
2023-04-07T05:49:27.712Z,97.30
2023-04-07T05:52:05.828Z,97.19
2023-04-07T05:54:36.584Z,97.18
2023-04-07T05:57:06.032Z,97.27
2023-04-07T05:59:34.071Z,97.18
2023-04-07T06:02:02.269Z,95.73
2023-04-07T06:04:33.966Z,95.85
2023-04-07T06:07:01.695Z,95.08
2023-04-07T06:09:29.315Z,95.18
2023-04-07T06:11:57.635Z,95.69
2023-04-07T06:14:27.273Z,95.70
2023-04-07T06:16:54.915Z,95.21
2023-04-07T06:19:22.531Z,94.44
2023-04-07T06:21:51.389Z,93.15
2023-04-07T06:24:18.954Z,92.77
2023-04-07T06:26:46.612Z,92.13
2023-04-07T06:29:14.382Z,91.46
2023-04-07T06:31:42.246Z,90.64
2023-04-07T06:34:09.782Z,91.09
2023-04-07T06:36:37.717Z,90.22
2023-04-07T06:39:06.726Z,89.55
2023-04-07T06:41:34.264Z,89.18
2023-04-07T06:44:01.835Z,88.48
2023-04-07T06:46:29.519Z,88.34
2023-04-07T06:48:57.151Z,87.98
2023-04-07T06:51:24.730Z,88.22
2023-04-07T06:53:52.292Z,87.76
2023-04-07T06:56:22.027Z,89.00
2023-04-07T06:58:49.572Z,91.62
2023-04-07T07:01:17.194Z,89.37
2023-04-07T07:03:44.836Z,88.87
2023-04-07T07:06:12.568Z,88.03
2023-04-07T07:08:40.802Z,86.60
2023-04-07T07:11:08.475Z,84.54
2023-04-07T07:13:38.034Z,83.28
2023-04-07T07:16:06.540Z,82.64
2023-04-07T07:18:34.186Z,80.89
2023-04-07T07:21:01.850Z,81.19
2023-04-07T07:23:29.490Z,81.43
2023-04-07T07:25:57.162Z,81.60
2023-04-07T07:28:24.772Z,81.28
2023-04-07T07:30:53.665Z,82.23
2023-04-07T07:33:22.696Z,81.47
2023-04-07T07:35:50.394Z,80.65
2023-04-07T07:38:17.956Z,80.44
2023-04-07T07:40:47.017Z,80.94
2023-04-07T07:43:14.595Z,80.51
2023-04-07T07:45:42.213Z,79.14
2023-04-07T07:48:11.310Z,77.28
2023-04-07T07:50:38.894Z,79.00
2023-04-07T07:53:06.504Z,71.79
2023-04-07T07:55:34.092Z,72.69
2023-04-07T07:58:01.654Z,72.12
2023-04-07T08:00:29.517Z,71.36
2023-04-07T08:02:57.176Z,71.56
2023-04-07T08:05:26.217Z,72.00
2023-04-07T08:07:55.333Z,70.58
2023-04-07T08:10:24.776Z,70.67
2023-04-07T08:12:52.619Z,70.92
2023-04-07T08:15:20.764Z,70.32
2023-04-07T08:17:48.307Z,69.94
2023-04-07T08:20:16.392Z,70.09
2023-04-07T08:22:46.382Z,68.23
2023-04-07T08:25:13.974Z,68.71
2023-04-07T08:27:41.674Z,68.54
2023-04-07T08:30:09.649Z,68.61
2023-04-07T08:32:38.565Z,67.66
2023-04-07T08:35:07.756Z,67.77
2023-04-07T08:37:35.989Z,68.94
2023-04-07T08:40:06.804Z,68.61
2023-04-07T08:42:36.249Z,71.22
2023-04-07T08:45:06.385Z,70.92
2023-04-07T08:47:36.865Z,70.21
2023-04-07T08:50:06.672Z,68.42
2023-04-07T08:52:36.448Z,69.11
2023-04-07T08:55:06.927Z,67.24
2023-04-07T08:57:35.345Z,67.55
2023-04-07T09:00:05.598Z,67.41
2023-04-07T09:02:34.954Z,67.77
2023-04-07T09:05:05.244Z,66.78
2023-04-07T09:07:33.722Z,65.21
2023-04-07T09:10:01.631Z,65.59
2023-04-07T09:12:31.385Z,65.02
2023-04-07T09:14:59.082Z,63.88
2023-04-07T09:17:27.858Z,64.76
2023-04-07T09:19:57.667Z,64.49
2023-04-07T09:22:39.451Z,65.31
2023-04-07T09:25:11.698Z,64.86
2023-04-07T09:27:40.905Z,65.05
2023-04-07T09:30:14.555Z,63.39
2023-04-07T09:32:42.817Z,62.44
2023-04-07T09:35:10.696Z,64.60
2023-04-07T09:37:38.408Z,66.10
2023-04-07T09:40:07.072Z,65.84
2023-04-07T09:42:37.182Z,65.44
2023-04-07T09:45:06.910Z,63.80
2023-04-07T09:47:34.581Z,65.29
2023-04-07T09:50:06.889Z,64.84
2023-04-07T09:52:51.785Z,64.24
2023-04-07T09:55:22.007Z,63.66
2023-04-07T09:57:51.115Z,63.59
2023-04-07T10:00:20.531Z,63.70
2023-04-07T10:02:49.278Z,64.12
2023-04-07T10:05:16.976Z,63.25
2023-04-07T10:07:44.928Z,63.42
2023-04-07T10:10:12.690Z,64.67
2023-04-07T10:12:41.365Z,65.92
2023-04-07T10:15:13.193Z,66.13
2023-04-07T10:17:47.808Z,66.55
2023-04-07T10:20:18.281Z,64.03
2023-04-07T10:22:47.906Z,62.57
2023-04-07T10:25:19.851Z,63.34
2023-04-07T10:27:52.161Z,63.06
2023-04-07T10:30:25.034Z,60.39
2023-04-07T10:32:55.358Z,60.70
2023-04-07T10:35:23.788Z,60.74
2023-04-07T10:38:11.688Z,60.23
2023-04-07T10:40:39.740Z,59.56
2023-04-07T10:43:11.019Z,59.34
2023-04-07T10:45:56.425Z,60.64
2023-04-07T10:48:28.298Z,60.03
2023-04-07T10:51:19.017Z,58.63
2023-04-07T10:54:21.039Z,56.92
2023-04-07T10:57:10.190Z,55.51
2023-04-07T10:59:38.895Z,54.52
2023-04-07T11:02:32.691Z,55.75
2023-04-07T11:05:02.627Z,57.19
2023-04-07T11:07:50.911Z,57.66
2023-04-07T11:10:19.498Z,59.18
2023-04-07T11:13:00.671Z,60.64
2023-04-07T11:15:28.537Z,62.51
2023-04-07T11:18:19.065Z,62.21
2023-04-07T11:20:50.173Z,62.36
2023-04-07T11:23:19.388Z,61.98
2023-04-07T11:25:48.980Z,63.36
2023-04-07T11:28:17.308Z,63.00
2023-04-07T11:30:51.484Z,63.40
2023-04-07T11:33:20.973Z,64.67
2023-04-07T11:35:52.109Z,65.24
2023-04-07T11:38:21.016Z,65.86
2023-04-07T11:40:48.944Z,66.58
2023-04-07T11:43:18.210Z,65.08
2023-04-07T11:45:46.120Z,66.92
2023-04-07T11:48:30.656Z,64.51
2023-04-07T11:51:00.226Z,63.59
2023-04-07T11:53:29.222Z,63.11
2023-04-07T11:56:01.577Z,63.50
2023-04-07T11:58:29.341Z,62.22
2023-04-07T12:00:57.188Z,61.48
2023-04-07T12:03:25.123Z,58.74
2023-04-07T12:05:54.440Z,60.15
2023-04-07T12:08:37.828Z,57.27
2023-04-07T12:11:05.629Z,54.89
2023-04-07T12:13:33.242Z,53.22
2023-04-07T12:16:01.597Z,49.11
2023-04-07T12:18:29.921Z,48.36
2023-04-07T12:20:58.891Z,46.79
2023-04-07T12:23:27.860Z,44.48
2023-04-07T12:25:55.606Z,45.73
2023-04-07T12:28:23.157Z,47.01
2023-04-07T12:30:50.846Z,47.50
2023-04-07T12:33:18.489Z,48.06
2023-04-07T12:35:46.164Z,47.25
2023-04-07T12:38:13.975Z,47.11
2023-04-07T12:40:43.174Z,44.71
2023-04-07T12:43:10.848Z,46.57
2023-04-07T12:45:38.387Z,49.13
2023-04-07T12:48:06.144Z,50.45
2023-04-07T12:50:33.800Z,51.61
2023-04-07T12:53:03.485Z,50.89
2023-04-07T12:55:33.315Z,51.04
2023-04-07T12:58:02.310Z,51.58
2023-04-07T13:00:30.454Z,51.15
2023-04-07T13:02:58.484Z,51.52
2023-04-07T13:05:26.257Z,52.46
2023-04-07T13:07:53.801Z,51.42
2023-04-07T13:10:21.410Z,46.91
2023-04-07T13:12:49.293Z,46.43
2023-04-07T13:15:18.402Z,47.09
2023-04-07T13:17:46.399Z,46.66
2023-04-07T13:20:19.354Z,47.29
2023-04-07T13:22:49.227Z,46.01
2023-04-07T13:25:23.216Z,42.88
2023-04-07T13:27:50.808Z,41.67
2023-04-07T13:30:21.492Z,40.90
2023-04-07T13:32:50.441Z,39.47
2023-04-07T13:35:18.189Z,38.76
2023-04-07T13:37:46.035Z,35.85
2023-04-07T13:40:13.902Z,36.07
2023-04-07T13:42:41.568Z,36.02
2023-04-07T13:45:10.175Z,33.74
2023-04-07T13:47:39.094Z,32.34
2023-04-07T13:50:07.630Z,34.57
2023-04-07T13:52:35.788Z,35.57
2023-04-07T13:55:04.351Z,38.25
2023-04-07T13:57:32.069Z,42.27
2023-04-07T13:59:59.898Z,44.90
2023-04-07T14:02:28.466Z,45.81
2023-04-07T14:04:57.788Z,46.26
2023-04-07T14:07:25.571Z,47.91
2023-04-07T14:09:54.427Z,48.14
2023-04-07T14:12:23.468Z,48.98
2023-04-07T14:14:52.358Z,49.99
2023-04-07T14:17:19.967Z,49.91
2023-04-07T14:19:49.080Z,49.85
2023-04-07T14:22:18.275Z,49.67
2023-04-07T14:24:46.217Z,49.35
2023-04-07T14:27:14.135Z,47.30
2023-04-07T14:29:41.707Z,44.99
2023-04-07T14:32:09.320Z,46.88
2023-04-07T14:34:37.169Z,47.50
2023-04-07T14:37:04.872Z,47.23
2023-04-07T14:39:34.183Z,47.46
2023-04-07T14:42:01.793Z,49.10
2023-04-07T14:44:31.061Z,49.70
2023-04-07T14:46:58.653Z,49.72
2023-04-07T14:49:28.317Z,50.09
2023-04-07T14:51:56.043Z,49.73
2023-04-07T14:54:24.337Z,50.08
2023-04-07T14:56:53.261Z,49.96
2023-04-07T14:59:20.833Z,51.53
2023-04-07T15:01:48.583Z,51.92
2023-04-07T15:04:16.438Z,51.85
2023-04-07T15:06:46.219Z,53.03
2023-04-07T15:09:14.972Z,54.61
2023-04-07T15:11:42.525Z,55.99
2023-04-07T15:14:11.400Z,56.62
2023-04-07T15:16:39.001Z,57.18
2023-04-07T15:19:06.757Z,58.34
2023-04-07T15:21:34.311Z,59.46
2023-04-07T15:24:01.838Z,59.25
2023-04-07T15:26:29.478Z,60.69
2023-04-07T15:28:57.003Z,61.69
2023-04-07T15:31:27.897Z,61.91
2023-04-07T15:33:55.517Z,62.88
2023-04-07T15:36:23.158Z,63.26
2023-04-07T15:38:50.781Z,61.97
2023-04-07T15:41:18.355Z,61.95
2023-04-07T15:43:45.936Z,61.94
2023-04-07T15:46:13.608Z,61.87
2023-04-07T15:48:42.494Z,62.35
2023-04-07T15:51:10.089Z,62.20
2023-04-07T15:53:37.686Z,61.96
2023-04-07T15:56:05.532Z,63.03
2023-04-07T15:58:33.094Z,62.96
2023-04-07T16:01:00.974Z,60.72
2023-04-07T16:03:29.005Z,53.99
2023-04-07T16:05:58.139Z,47.24
2023-04-07T16:08:25.900Z,42.80
2023-04-07T16:10:53.440Z,39.57
2023-04-07T16:13:21.092Z,36.14
2023-04-07T16:15:48.713Z,32.83
2023-04-07T16:18:16.601Z,32.17
2023-04-07T16:20:44.206Z,31.57
2023-04-07T16:23:13.443Z,31.56
2023-04-07T16:25:41.025Z,32.93
2023-04-07T16:28:08.577Z,32.33
2023-04-07T16:30:36.266Z,32.61
2023-04-07T16:33:03.890Z,33.34
2023-04-07T16:35:31.951Z,34.98
2023-04-07T16:38:03.812Z,35.83
2023-04-07T16:40:32.809Z,36.79
2023-04-07T16:43:00.518Z,40.89
2023-04-07T16:45:28.146Z,45.58
2023-04-07T16:47:55.935Z,47.79
2023-04-07T16:50:23.697Z,50.91
2023-04-07T16:52:51.426Z,53.78
2023-04-07T16:55:19.135Z,55.96
2023-04-07T16:57:49.043Z,56.99
2023-04-07T17:00:17.192Z,59.41
2023-04-07T17:02:44.965Z,60.04
2023-04-07T17:05:12.742Z,59.87
2023-04-07T17:07:40.338Z,60.75
2023-04-07T17:10:10.517Z,60.96
2023-04-07T17:12:38.110Z,60.37
2023-04-07T17:15:07.978Z,59.37
2023-04-07T17:17:35.717Z,58.74
2023-04-07T17:20:04.693Z,60.19
2023-04-07T17:22:32.319Z,62.78
2023-04-07T17:24:59.885Z,63.98
2023-04-07T17:27:28.134Z,65.14
2023-04-07T17:29:55.864Z,65.81
2023-04-07T17:32:24.784Z,66.61
2023-04-07T17:34:52.402Z,67.17
2023-04-07T17:37:20.040Z,68.64
2023-04-07T17:39:47.897Z,69.13
2023-04-07T17:42:15.547Z,69.50
2023-04-07T17:44:43.391Z,70.03
2023-04-07T17:47:10.971Z,70.60
2023-04-07T17:49:40.485Z,71.14
2023-04-07T17:52:08.118Z,72.40
2023-04-07T17:54:35.702Z,73.50
2023-04-07T17:57:03.597Z,73.18
2023-04-07T17:59:31.151Z,73.96
2023-04-07T18:01:58.972Z,74.20
2023-04-07T18:04:26.982Z,75.00
2023-04-07T18:06:55.873Z,75.07
2023-04-07T18:09:23.468Z,75.57
2023-04-07T18:11:51.013Z,75.69
2023-04-07T18:14:18.543Z,75.98
2023-04-07T18:16:46.051Z,76.46
2023-04-07T18:19:14.324Z,75.94
2023-04-07T18:21:41.826Z,76.03
2023-04-07T18:24:11.315Z,75.75
2023-04-07T18:26:38.853Z,75.35
2023-04-07T18:29:09.504Z,75.66
2023-04-07T18:31:37.819Z,75.16
2023-04-07T18:34:05.353Z,75.63
2023-04-07T18:36:32.888Z,76.37
2023-04-07T18:39:00.480Z,76.13
2023-04-07T18:41:29.402Z,75.66
2023-04-07T18:43:57.028Z,76.00
2023-04-07T18:46:24.724Z,76.10
2023-04-07T18:48:52.349Z,76.77
2023-04-07T18:51:20.024Z,76.53
2023-04-07T18:53:47.942Z,76.86
2023-04-07T18:56:15.746Z,75.83
2023-04-07T18:58:45.727Z,76.82
2023-04-07T19:01:13.938Z,76.35
2023-04-07T19:03:42.413Z,76.51
2023-04-07T19:06:10.413Z,76.83
2023-04-07T19:08:38.014Z,76.22
2023-04-07T19:11:05.590Z,76.31
2023-04-07T19:13:33.313Z,76.75
2023-04-07T19:16:03.108Z,76.46
2023-04-07T19:18:31.722Z,76.92
2023-04-07T19:20:59.391Z,76.25
2023-04-07T19:23:27.053Z,77.30
2023-04-07T19:25:54.864Z,76.78
2023-04-07T19:28:22.802Z,77.31
2023-04-07T19:30:50.399Z,77.75
2023-04-07T19:33:19.324Z,78.03
2023-04-07T19:35:46.971Z,78.68
2023-04-07T19:38:14.538Z,77.87
2023-04-07T19:40:42.428Z,78.79
2023-04-07T19:43:09.951Z,78.39
2023-04-07T19:45:37.590Z,78.35
2023-04-07T19:48:05.195Z,78.27
2023-04-07T19:50:36.545Z,78.67
2023-04-07T19:53:04.078Z,77.89
2023-04-07T19:55:31.642Z,78.36
2023-04-07T19:57:59.177Z,78.05
2023-04-07T20:00:27.220Z,78.18
2023-04-07T20:02:54.903Z,78.15
2023-04-07T20:05:22.770Z,78.31
2023-04-07T20:07:52.166Z,78.50
2023-04-07T20:10:19.691Z,79.34
2023-04-07T20:12:47.217Z,78.86
2023-04-07T20:15:15.190Z,79.42
2023-04-07T20:17:42.794Z,79.03
2023-04-07T20:20:11.314Z,79.50
2023-04-07T20:22:38.920Z,79.93
2023-04-07T20:25:09.499Z,79.77
2023-04-07T20:27:37.395Z,79.22
2023-04-07T20:30:05.355Z,79.12
2023-04-07T20:32:32.925Z,78.82
2023-04-07T20:35:00.472Z,79.00
2023-04-07T20:37:28.049Z,78.90
2023-04-07T20:39:55.936Z,78.74
2023-04-07T20:42:24.880Z,80.06
2023-04-07T20:44:53.508Z,80.48
2023-04-07T20:47:21.130Z,81.58
2023-04-07T20:49:48.764Z,83.29
2023-04-07T20:52:16.565Z,83.12
2023-04-07T20:54:44.832Z,83.73
2023-04-07T20:57:12.451Z,84.96
2023-04-07T20:59:41.346Z,85.33
2023-04-07T21:02:09.268Z,85.84
2023-04-07T21:04:36.936Z,86.53
2023-04-07T21:07:04.487Z,86.47
2023-04-07T21:09:32.042Z,86.93
2023-04-07T21:12:01.826Z,86.08
2023-04-07T21:14:29.532Z,86.01
2023-04-07T21:16:58.421Z,86.57
2023-04-07T21:19:26.089Z,87.20
2023-04-07T21:21:53.720Z,87.22
2023-04-07T21:24:22.887Z,86.97
2023-04-07T21:26:50.708Z,88.27
2023-04-07T21:29:18.257Z,89.75
2023-04-07T21:31:45.907Z,90.64
2023-04-07T21:34:14.862Z,90.68
2023-04-07T21:36:42.577Z,90.65
2023-04-07T21:39:10.594Z,89.72
2023-04-07T21:41:40.758Z,90.24
2023-04-07T21:44:11.097Z,90.17
2023-04-07T21:46:38.709Z,90.73
2023-04-07T21:49:06.355Z,90.50
2023-04-07T21:51:35.214Z,90.95
2023-04-07T21:54:02.753Z,91.55
2023-04-07T21:56:30.319Z,91.44
2023-04-07T21:58:57.915Z,91.77
2023-04-07T22:01:25.498Z,93.30
2023-04-07T22:03:53.159Z,92.63
2023-04-07T22:06:20.775Z,92.74
2023-04-07T22:11:22.315Z,92.98
2023-04-07T22:13:49.912Z,92.89
2023-04-07T22:16:17.546Z,92.65
2023-04-07T22:18:45.235Z,92.64
2023-04-07T22:21:12.782Z,93.07
2023-04-07T22:23:40.388Z,93.03
2023-04-07T22:26:09.318Z,92.70
2023-04-07T22:28:37.255Z,92.85
2023-04-07T22:31:05.098Z,93.51
2023-04-07T22:33:32.662Z,92.92
2023-04-07T22:36:00.241Z,93.46
2023-04-07T22:38:27.810Z,93.79
2023-04-07T22:40:55.331Z,93.09
2023-04-07T22:43:24.237Z,93.48
2023-04-07T22:45:51.992Z,93.36
2023-04-07T22:48:19.603Z,93.82
2023-04-07T22:50:47.194Z,93.31
2023-04-07T22:53:14.721Z,93.60
2023-04-07T22:55:42.302Z,93.54
2023-04-07T22:58:09.885Z,94.00
2023-04-07T23:00:38.855Z,93.63
2023-04-07T23:03:06.606Z,93.69
2023-04-07T23:05:34.291Z,93.64
2023-04-07T23:08:01.857Z,93.01
2023-04-07T23:10:30.997Z,93.23
2023-04-07T23:12:59.385Z,93.81
2023-04-07T23:15:27.177Z,93.24
2023-04-07T23:17:56.468Z,93.39
2023-04-07T23:20:24.045Z,94.16
2023-04-07T23:22:51.618Z,94.32
2023-04-07T23:25:19.349Z,94.77
2023-04-07T23:27:46.943Z,94.85
2023-04-07T23:30:14.656Z,94.08
2023-04-07T23:32:42.411Z,93.99
2023-04-07T23:35:11.830Z,94.07
2023-04-07T23:37:39.597Z,93.80
2023-04-07T23:40:08.671Z,93.71
2023-04-07T23:42:36.747Z,94.44
2023-04-07T23:45:04.635Z,94.36
2023-04-07T23:47:32.190Z,93.45
2023-04-07T23:50:00.173Z,93.93
2023-04-07T23:52:29.196Z,93.50
2023-04-07T23:54:56.720Z,92.59
2023-04-07T23:57:24.225Z,92.99
2023-04-07T23:59:51.766Z,93.45
